sensor_id;sensor_type;location;lat;lon;timestamp;temperature;humidity
50570;DHT22;36525;49.398;7.614;2022-08-18T00:02:24;21.70;99.90
50570;DHT22;36525;49.398;7.614;2022-08-18T00:04:56;21.60;99.90
50570;DHT22;36525;49.398;7.614;2022-08-18T00:07:29;21.50;99.90
50570;DHT22;36525;49.398;7.614;2022-08-18T00:09:58;21.40;99.90
50570;DHT22;36525;49.398;7.614;2022-08-18T00:12:32;21.40;99.90
50570;DHT22;36525;49.398;7.614;2022-08-18T00:15:09;21.50;99.90
50570;DHT22;36525;49.398;7.614;2022-08-18T00:17:38;21.60;99.90
50570;DHT22;36525;49.398;7.614;2022-08-18T00:20:11;21.60;99.90
50570;DHT22;36525;49.398;7.614;2022-08-18T00:22:40;21.50;99.90
50570;DHT22;36525;49.398;7.614;2022-08-18T00:25:10;21.40;99.90
50570;DHT22;36525;49.398;7.614;2022-08-18T00:27:38;21.50;99.90
50570;DHT22;36525;49.398;7.614;2022-08-18T00:30:11;21.60;99.90
50570;DHT22;36525;49.398;7.614;2022-08-18T00:32:42;21.80;99.90
50570;DHT22;36525;49.398;7.614;2022-08-18T00:35:20;21.60;99.90
50570;DHT22;36525;49.398;7.614;2022-08-18T00:37:56;21.70;99.90
50570;DHT22;36525;49.398;7.614;2022-08-18T00:40:28;21.70;99.90
50570;DHT22;36525;49.398;7.614;2022-08-18T00:43:05;21.70;99.90
50570;DHT22;36525;49.398;7.614;2022-08-18T00:45:36;21.70;99.90
50570;DHT22;36525;49.398;7.614;2022-08-18T00:48:06;21.70;99.90
50570;DHT22;36525;49.398;7.614;2022-08-18T00:53:40;21.70;99.90
50570;DHT22;36525;49.398;7.614;2022-08-18T00:56:21;21.70;99.90
50570;DHT22;36525;49.398;7.614;2022-08-18T00:59:09;21.60;99.90
50570;DHT22;36525;49.398;7.614;2022-08-18T01:01:40;21.50;99.90
50570;DHT22;36525;49.398;7.614;2022-08-18T01:04:15;21.40;99.90
50570;DHT22;36525;49.398;7.614;2022-08-18T01:06:57;21.50;99.90
50570;DHT22;36525;49.398;7.614;2022-08-18T01:09:26;21.30;99.90
50570;DHT22;36525;49.398;7.614;2022-08-18T01:11:53;21.10;99.90
50570;DHT22;36525;49.398;7.614;2022-08-18T01:14:22;21.10;99.90
50570;DHT22;36525;49.398;7.614;2022-08-18T01:16:50;21.00;99.90
50570;DHT22;36525;49.398;7.614;2022-08-18T01:19:36;21.00;99.90
50570;DHT22;36525;49.398;7.614;2022-08-18T01:22:29;21.10;99.90
50570;DHT22;36525;49.398;7.614;2022-08-18T01:25:02;21.20;99.90
50570;DHT22;36525;49.398;7.614;2022-08-18T01:27:52;21.20;99.90
50570;DHT22;36525;49.398;7.614;2022-08-18T01:30:26;21.20;99.90
50570;DHT22;36525;49.398;7.614;2022-08-18T01:32:53;21.20;99.90
50570;DHT22;36525;49.398;7.614;2022-08-18T01:35:21;21.20;99.90
50570;DHT22;36525;49.398;7.614;2022-08-18T01:37:52;21.00;99.90
50570;DHT22;36525;49.398;7.614;2022-08-18T01:40:22;21.00;99.90
50570;DHT22;36525;49.398;7.614;2022-08-18T01:43:09;20.90;99.90
50570;DHT22;36525;49.398;7.614;2022-08-18T01:45:37;20.80;99.90
50570;DHT22;36525;49.398;7.614;2022-08-18T01:48:05;20.70;99.90
50570;DHT22;36525;49.398;7.614;2022-08-18T01:50:32;20.50;99.90
50570;DHT22;36525;49.398;7.614;2022-08-18T01:53:02;20.40;99.90
50570;DHT22;36525;49.398;7.614;2022-08-18T01:55:33;20.20;99.90
50570;DHT22;36525;49.398;7.614;2022-08-18T01:58:01;20.10;99.90
50570;DHT22;36525;49.398;7.614;2022-08-18T02:00:29;20.10;99.90
50570;DHT22;36525;49.398;7.614;2022-08-18T02:02:59;20.10;99.90
50570;DHT22;36525;49.398;7.614;2022-08-18T02:05:33;20.10;99.90
50570;DHT22;36525;49.398;7.614;2022-08-18T02:08:08;20.10;99.90
50570;DHT22;36525;49.398;7.614;2022-08-18T02:10:38;19.90;99.90
50570;DHT22;36525;49.398;7.614;2022-08-18T02:13:06;19.80;99.90
50570;DHT22;36525;49.398;7.614;2022-08-18T02:15:34;19.70;99.90
50570;DHT22;36525;49.398;7.614;2022-08-18T02:18:01;19.50;99.90
50570;DHT22;36525;49.398;7.614;2022-08-18T02:20:28;19.50;99.90
50570;DHT22;36525;49.398;7.614;2022-08-18T02:22:55;19.40;99.90
50570;DHT22;36525;49.398;7.614;2022-08-18T02:25:24;19.50;99.90
50570;DHT22;36525;49.398;7.614;2022-08-18T02:27:51;19.60;99.90
50570;DHT22;36525;49.398;7.614;2022-08-18T02:30:19;19.70;99.90
50570;DHT22;36525;49.398;7.614;2022-08-18T02:32:46;19.60;99.90
50570;DHT22;36525;49.398;7.614;2022-08-18T02:35:14;19.60;99.90
50570;DHT22;36525;49.398;7.614;2022-08-18T02:37:41;19.60;99.90
50570;DHT22;36525;49.398;7.614;2022-08-18T02:40:14;19.50;99.90
50570;DHT22;36525;49.398;7.614;2022-08-18T02:42:43;19.50;99.90
50570;DHT22;36525;49.398;7.614;2022-08-18T02:45:12;19.30;99.90
50570;DHT22;36525;49.398;7.614;2022-08-18T02:47:39;19.30;99.90
50570;DHT22;36525;49.398;7.614;2022-08-18T02:50:11;19.20;99.90
50570;DHT22;36525;49.398;7.614;2022-08-18T02:52:39;19.10;99.90
50570;DHT22;36525;49.398;7.614;2022-08-18T02:55:07;19.00;99.90
50570;DHT22;36525;49.398;7.614;2022-08-18T02:57:35;19.00;99.90
50570;DHT22;36525;49.398;7.614;2022-08-18T03:00:03;18.90;99.90
50570;DHT22;36525;49.398;7.614;2022-08-18T03:02:30;18.90;99.90
50570;DHT22;36525;49.398;7.614;2022-08-18T03:04:57;18.80;99.90
50570;DHT22;36525;49.398;7.614;2022-08-18T03:07:24;18.90;99.90
50570;DHT22;36525;49.398;7.614;2022-08-18T03:09:51;18.90;99.90
50570;DHT22;36525;49.398;7.614;2022-08-18T03:12:18;19.00;99.90
50570;DHT22;36525;49.398;7.614;2022-08-18T03:14:45;19.00;99.90
50570;DHT22;36525;49.398;7.614;2022-08-18T03:17:12;19.10;99.90
50570;DHT22;36525;49.398;7.614;2022-08-18T03:19:40;19.10;99.90
50570;DHT22;36525;49.398;7.614;2022-08-18T03:22:13;19.00;99.90
50570;DHT22;36525;49.398;7.614;2022-08-18T03:24:55;18.90;99.90
50570;DHT22;36525;49.398;7.614;2022-08-18T03:27:23;18.90;99.90
50570;DHT22;36525;49.398;7.614;2022-08-18T03:29:50;18.80;99.90
50570;DHT22;36525;49.398;7.614;2022-08-18T03:32:17;18.80;99.90
50570;DHT22;36525;49.398;7.614;2022-08-18T03:34:44;18.80;99.90
50570;DHT22;36525;49.398;7.614;2022-08-18T03:37:11;18.80;99.90
50570;DHT22;36525;49.398;7.614;2022-08-18T03:39:41;18.90;99.90
50570;DHT22;36525;49.398;7.614;2022-08-18T03:42:08;18.90;99.90
50570;DHT22;36525;49.398;7.614;2022-08-18T03:44:36;18.90;99.90
50570;DHT22;36525;49.398;7.614;2022-08-18T03:47:07;18.90;99.90
50570;DHT22;36525;49.398;7.614;2022-08-18T03:49:36;19.00;99.90
50570;DHT22;36525;49.398;7.614;2022-08-18T03:52:07;19.00;99.90
50570;DHT22;36525;49.398;7.614;2022-08-18T03:54:35;19.00;99.90
50570;DHT22;36525;49.398;7.614;2022-08-18T03:57:07;19.00;99.90
50570;DHT22;36525;49.398;7.614;2022-08-18T03:59:35;19.10;99.90
50570;DHT22;36525;49.398;7.614;2022-08-18T04:02:04;19.10;99.90
50570;DHT22;36525;49.398;7.614;2022-08-18T04:04:31;19.10;99.90
50570;DHT22;36525;49.398;7.614;2022-08-18T04:07:02;19.00;99.90
50570;DHT22;36525;49.398;7.614;2022-08-18T04:09:34;18.90;99.90
50570;DHT22;36525;49.398;7.614;2022-08-18T04:12:09;18.80;99.90
50570;DHT22;36525;49.398;7.614;2022-08-18T04:14:45;18.80;99.90
50570;DHT22;36525;49.398;7.614;2022-08-18T04:17:18;18.70;99.90
50570;DHT22;36525;49.398;7.614;2022-08-18T04:19:54;18.70;99.90
50570;DHT22;36525;49.398;7.614;2022-08-18T04:22:21;18.80;99.90
50570;DHT22;36525;49.398;7.614;2022-08-18T04:24:49;18.80;99.90
50570;DHT22;36525;49.398;7.614;2022-08-18T04:27:18;18.80;99.90
50570;DHT22;36525;49.398;7.614;2022-08-18T04:29:46;18.90;99.90
50570;DHT22;36525;49.398;7.614;2022-08-18T04:32:13;19.00;99.90
50570;DHT22;36525;49.398;7.614;2022-08-18T04:34:47;19.00;99.90
50570;DHT22;36525;49.398;7.614;2022-08-18T04:37:15;19.00;99.90
50570;DHT22;36525;49.398;7.614;2022-08-18T04:39:43;19.10;99.90
50570;DHT22;36525;49.398;7.614;2022-08-18T04:42:11;19.10;99.90
50570;DHT22;36525;49.398;7.614;2022-08-18T04:44:38;19.10;99.90
50570;DHT22;36525;49.398;7.614;2022-08-18T04:47:05;19.10;99.90
50570;DHT22;36525;49.398;7.614;2022-08-18T04:49:36;19.20;99.90
50570;DHT22;36525;49.398;7.614;2022-08-18T04:52:05;19.20;99.90
50570;DHT22;36525;49.398;7.614;2022-08-18T04:55:07;19.10;99.90
50570;DHT22;36525;49.398;7.614;2022-08-18T04:57:35;19.20;99.90
50570;DHT22;36525;49.398;7.614;2022-08-18T05:00:05;19.20;99.90
50570;DHT22;36525;49.398;7.614;2022-08-18T05:02:33;19.30;99.90
50570;DHT22;36525;49.398;7.614;2022-08-18T05:05:00;19.20;99.90
50570;DHT22;36525;49.398;7.614;2022-08-18T05:07:29;19.30;99.90
50570;DHT22;36525;49.398;7.614;2022-08-18T05:09:56;19.30;99.90
50570;DHT22;36525;49.398;7.614;2022-08-18T05:12:23;19.30;99.90
50570;DHT22;36525;49.398;7.614;2022-08-18T05:14:52;19.30;99.90
50570;DHT22;36525;49.398;7.614;2022-08-18T05:17:20;19.30;99.90
50570;DHT22;36525;49.398;7.614;2022-08-18T05:19:50;19.30;99.90
50570;DHT22;36525;49.398;7.614;2022-08-18T05:22:17;19.30;99.90
50570;DHT22;36525;49.398;7.614;2022-08-18T05:24:56;19.30;99.90
50570;DHT22;36525;49.398;7.614;2022-08-18T05:27:23;19.40;99.90
50570;DHT22;36525;49.398;7.614;2022-08-18T05:29:50;19.40;99.90
50570;DHT22;36525;49.398;7.614;2022-08-18T05:32:17;19.30;99.90
50570;DHT22;36525;49.398;7.614;2022-08-18T05:35:14;19.30;99.90
50570;DHT22;36525;49.398;7.614;2022-08-18T05:41:13;19.30;99.90
50570;DHT22;36525;49.398;7.614;2022-08-18T05:43:44;19.30;99.90
50570;DHT22;36525;49.398;7.614;2022-08-18T05:46:19;19.20;99.90
50570;DHT22;36525;49.398;7.614;2022-08-18T05:48:49;19.10;99.90
50570;DHT22;36525;49.398;7.614;2022-08-18T05:51:40;19.00;99.90
50570;DHT22;36525;49.398;7.614;2022-08-18T05:54:10;18.90;99.90
50570;DHT22;36525;49.398;7.614;2022-08-18T05:57:04;18.90;99.90
50570;DHT22;36525;49.398;7.614;2022-08-18T05:59:39;18.80;99.90
50570;DHT22;36525;49.398;7.614;2022-08-18T06:05:11;18.70;99.90
50570;DHT22;36525;49.398;7.614;2022-08-18T06:07:44;18.80;99.90
50570;DHT22;36525;49.398;7.614;2022-08-18T06:10:20;18.80;99.90
50570;DHT22;36525;49.398;7.614;2022-08-18T06:12:53;18.90;99.90
50570;DHT22;36525;49.398;7.614;2022-08-18T06:24:37;19.10;99.90
50570;DHT22;36525;49.398;7.614;2022-08-18T06:30:22;19.20;99.90
50570;DHT22;36525;49.398;7.614;2022-08-18T06:36:02;19.30;99.90
50570;DHT22;36525;49.398;7.614;2022-08-18T06:39:08;19.30;99.90
50570;DHT22;36525;49.398;7.614;2022-08-18T06:41:56;19.30;99.90
50570;DHT22;36525;49.398;7.614;2022-08-18T06:44:31;19.40;99.90
50570;DHT22;36525;49.398;7.614;2022-08-18T06:47:34;19.40;99.90
50570;DHT22;36525;49.398;7.614;2022-08-18T06:50:15;19.50;99.90
50570;DHT22;36525;49.398;7.614;2022-08-18T06:52:58;19.50;99.90
50570;DHT22;36525;49.398;7.614;2022-08-18T06:55:42;19.50;99.90
50570;DHT22;36525;49.398;7.614;2022-08-18T07:03:43;19.40;99.90
50570;DHT22;36525;49.398;7.614;2022-08-18T07:08:52;19.40;99.90
50570;DHT22;36525;49.398;7.614;2022-08-18T07:11:29;19.40;99.90
50570;DHT22;36525;49.398;7.614;2022-08-18T07:14:12;19.40;99.90
50570;DHT22;36525;49.398;7.614;2022-08-18T07:16:43;19.40;99.90
50570;DHT22;36525;49.398;7.614;2022-08-18T07:19:28;19.40;99.90
50570;DHT22;36525;49.398;7.614;2022-08-18T07:22:07;19.40;99.90
50570;DHT22;36525;49.398;7.614;2022-08-18T07:24:47;19.30;99.90
50570;DHT22;36525;49.398;7.614;2022-08-18T07:27:18;19.30;99.90
50570;DHT22;36525;49.398;7.614;2022-08-18T07:30:05;19.20;99.90
50570;DHT22;36525;49.398;7.614;2022-08-18T07:35:46;19.10;99.90
50570;DHT22;36525;49.398;7.614;2022-08-18T07:38:35;19.10;99.90
50570;DHT22;36525;49.398;7.614;2022-08-18T07:41:43;19.00;99.90
50570;DHT22;36525;49.398;7.614;2022-08-18T07:46:57;19.00;99.90
50570;DHT22;36525;49.398;7.614;2022-08-18T07:49:31;19.00;99.90
50570;DHT22;36525;49.398;7.614;2022-08-18T07:58:17;19.00;99.90
50570;DHT22;36525;49.398;7.614;2022-08-18T08:01:25;19.10;99.90
50570;DHT22;36525;49.398;7.614;2022-08-18T08:07:09;19.30;99.90
50570;DHT22;36525;49.398;7.614;2022-08-18T08:22:21;19.70;99.90
50570;DHT22;36525;49.398;7.614;2022-08-18T08:25:17;19.80;99.90
50570;DHT22;36525;49.398;7.614;2022-08-18T08:31:16;20.00;99.90
50570;DHT22;36525;49.398;7.614;2022-08-18T08:34:13;20.10;99.90
50570;DHT22;36525;49.398;7.614;2022-08-18T08:36:45;20.10;99.90
50570;DHT22;36525;49.398;7.614;2022-08-18T08:45:10;20.20;99.90
50570;DHT22;36525;49.398;7.614;2022-08-18T08:50:48;20.60;99.90
50570;DHT22;36525;49.398;7.614;2022-08-18T08:53:27;20.60;99.90
50570;DHT22;36525;49.398;7.614;2022-08-18T08:56:05;20.70;99.90
50570;DHT22;36525;49.398;7.614;2022-08-18T09:04:32;20.60;99.90
50570;DHT22;36525;49.398;7.614;2022-08-18T09:07:17;20.60;99.90
50570;DHT22;36525;49.398;7.614;2022-08-18T09:24:59;20.10;99.90
50570;DHT22;36525;49.398;7.614;2022-08-18T09:27:45;20.20;99.90
50570;DHT22;36525;49.398;7.614;2022-08-18T09:30:41;20.20;99.90
50570;DHT22;36525;49.398;7.614;2022-08-18T09:36:17;20.50;99.90
50570;DHT22;36525;49.398;7.614;2022-08-18T09:42:33;21.00;99.90
50570;DHT22;36525;49.398;7.614;2022-08-18T09:50:54;21.00;99.90
50570;DHT22;36525;49.398;7.614;2022-08-18T09:53:50;21.10;99.90
50570;DHT22;36525;49.398;7.614;2022-08-18T09:56:56;21.00;99.90
50570;DHT22;36525;49.398;7.614;2022-08-18T10:02:11;21.30;99.90
50570;DHT22;36525;49.398;7.614;2022-08-18T10:07:51;21.30;99.90
50570;DHT22;36525;49.398;7.614;2022-08-18T10:16:44;21.00;99.90
50570;DHT22;36525;49.398;7.614;2022-08-18T10:19:48;21.10;99.90
50570;DHT22;36525;49.398;7.614;2022-08-18T10:22:43;21.10;99.90
50570;DHT22;36525;49.398;7.614;2022-08-18T10:25:39;21.10;99.90
50570;DHT22;36525;49.398;7.614;2022-08-18T10:28:11;21.10;99.90
50570;DHT22;36525;49.398;7.614;2022-08-18T10:31:17;21.10;99.90
50570;DHT22;36525;49.398;7.614;2022-08-18T10:39:21;21.40;99.90
50570;DHT22;36525;49.398;7.614;2022-08-18T10:42:05;21.40;99.90
50570;DHT22;36525;49.398;7.614;2022-08-18T10:44:43;21.40;99.90
50570;DHT22;36525;49.398;7.614;2022-08-18T10:47:26;21.50;99.90
50570;DHT22;36525;49.398;7.614;2022-08-18T10:50:04;21.50;99.90
50570;DHT22;36525;49.398;7.614;2022-08-18T10:53:01;21.60;99.90
50570;DHT22;36525;49.398;7.614;2022-08-18T10:55:59;21.60;99.90
50570;DHT22;36525;49.398;7.614;2022-08-18T11:07:28;21.90;99.90
50570;DHT22;36525;49.398;7.614;2022-08-18T11:10:13;22.20;99.90
50570;DHT22;36525;49.398;7.614;2022-08-18T11:13:10;22.50;99.90
50570;DHT22;36525;49.398;7.614;2022-08-18T11:18:39;22.50;99.90
50570;DHT22;36525;49.398;7.614;2022-08-18T11:24:23;22.30;99.90
50570;DHT22;36525;49.398;7.614;2022-08-18T11:26:58;22.20;99.90
50570;DHT22;36525;49.398;7.614;2022-08-18T11:29:38;22.10;99.90
50570;DHT22;36525;49.398;7.614;2022-08-18T11:32:31;22.10;99.90
50570;DHT22;36525;49.398;7.614;2022-08-18T11:40:20;21.80;99.90
50570;DHT22;36525;49.398;7.614;2022-08-18T11:43:31;21.80;99.90
50570;DHT22;36525;49.398;7.614;2022-08-18T11:48:56;22.00;99.90
50570;DHT22;36525;49.398;7.614;2022-08-18T11:51:32;22.00;99.90
50570;DHT22;36525;49.398;7.614;2022-08-18T11:56:38;21.70;99.90
50570;DHT22;36525;49.398;7.614;2022-08-18T12:02:16;21.70;99.90
50570;DHT22;36525;49.398;7.614;2022-08-18T12:04:49;21.70;99.90
50570;DHT22;36525;49.398;7.614;2022-08-18T12:07:29;21.70;99.90
50570;DHT22;36525;49.398;7.614;2022-08-18T12:12:54;22.10;99.90
50570;DHT22;36525;49.398;7.614;2022-08-18T12:15:29;22.20;99.90
50570;DHT22;36525;49.398;7.614;2022-08-18T12:18:16;22.20;99.90
50570;DHT22;36525;49.398;7.614;2022-08-18T12:20:56;22.00;99.90
50570;DHT22;36525;49.398;7.614;2022-08-18T12:23:24;22.00;99.90
50570;DHT22;36525;49.398;7.614;2022-08-18T12:25:51;22.10;99.90
50570;DHT22;36525;49.398;7.614;2022-08-18T12:28:19;22.30;99.90
50570;DHT22;36525;49.398;7.614;2022-08-18T12:30:48;22.30;99.90
50570;DHT22;36525;49.398;7.614;2022-08-18T12:33:23;22.20;99.90
50570;DHT22;36525;49.398;7.614;2022-08-18T12:35:51;22.20;99.90
50570;DHT22;36525;49.398;7.614;2022-08-18T12:38:18;22.20;99.90
50570;DHT22;36525;49.398;7.614;2022-08-18T12:40:45;22.40;99.90
50570;DHT22;36525;49.398;7.614;2022-08-18T12:43:12;22.50;99.90
50570;DHT22;36525;49.398;7.614;2022-08-18T12:45:42;22.60;99.90
50570;DHT22;36525;49.398;7.614;2022-08-18T12:48:09;22.60;99.90
50570;DHT22;36525;49.398;7.614;2022-08-18T12:50:38;22.50;99.90
50570;DHT22;36525;49.398;7.614;2022-08-18T12:53:20;22.50;99.90
50570;DHT22;36525;49.398;7.614;2022-08-18T12:58:58;23.00;99.90
50570;DHT22;36525;49.398;7.614;2022-08-18T13:01:31;23.30;99.90
50570;DHT22;36525;49.398;7.614;2022-08-18T13:04:00;23.60;99.90
50570;DHT22;36525;49.398;7.614;2022-08-18T13:06:44;23.80;99.90
50570;DHT22;36525;49.398;7.614;2022-08-18T13:09:25;24.00;99.90
50570;DHT22;36525;49.398;7.614;2022-08-18T13:12:12;24.00;99.90
50570;DHT22;36525;49.398;7.614;2022-08-18T13:14:42;24.20;99.90
50570;DHT22;36525;49.398;7.614;2022-08-18T13:17:11;24.20;99.90
50570;DHT22;36525;49.398;7.614;2022-08-18T13:20:01;24.30;99.90
50570;DHT22;36525;49.398;7.614;2022-08-18T13:22:31;24.40;99.90
50570;DHT22;36525;49.398;7.614;2022-08-18T13:25:03;24.70;99.90
50570;DHT22;36525;49.398;7.614;2022-08-18T13:27:34;24.90;99.90
50570;DHT22;36525;49.398;7.614;2022-08-18T13:30:14;25.20;99.90
50570;DHT22;36525;49.398;7.614;2022-08-18T13:32:59;25.30;99.90
50570;DHT22;36525;49.398;7.614;2022-08-18T13:35:47;25.50;99.90
50570;DHT22;36525;49.398;7.614;2022-08-18T13:38:20;25.50;99.90
50570;DHT22;36525;49.398;7.614;2022-08-18T13:40:56;25.60;99.90
50570;DHT22;36525;49.398;7.614;2022-08-18T13:43:33;25.80;99.90
50570;DHT22;36525;49.398;7.614;2022-08-18T13:46:06;26.30;99.90
50570;DHT22;36525;49.398;7.614;2022-08-18T13:48:35;26.80;99.90
50570;DHT22;36525;49.398;7.614;2022-08-18T13:51:05;26.90;99.90
50570;DHT22;36525;49.398;7.614;2022-08-18T13:53:36;27.20;99.90
50570;DHT22;36525;49.398;7.614;2022-08-18T13:56:17;28.10;99.90
50570;DHT22;36525;49.398;7.614;2022-08-18T13:58:45;28.30;99.90
50570;DHT22;36525;49.398;7.614;2022-08-18T14:01:19;28.60;99.90
50570;DHT22;36525;49.398;7.614;2022-08-18T14:04:07;28.90;99.90
50570;DHT22;36525;49.398;7.614;2022-08-18T14:06:40;28.70;99.90
50570;DHT22;36525;49.398;7.614;2022-08-18T14:09:17;28.30;99.90
50570;DHT22;36525;49.398;7.614;2022-08-18T14:12:18;27.80;99.90
50570;DHT22;36525;49.398;7.614;2022-08-18T14:14:53;27.60;99.90
50570;DHT22;36525;49.398;7.614;2022-08-18T14:17:25;27.70;99.90
50570;DHT22;36525;49.398;7.614;2022-08-18T14:19:53;27.80;99.90
50570;DHT22;36525;49.398;7.614;2022-08-18T14:22:55;27.90;99.90
50570;DHT22;36525;49.398;7.614;2022-08-18T14:25:50;28.40;99.90
50570;DHT22;36525;49.398;7.614;2022-08-18T14:28:36;29.00;99.90
50570;DHT22;36525;49.398;7.614;2022-08-18T14:31:06;28.80;99.90
50570;DHT22;36525;49.398;7.614;2022-08-18T14:33:34;28.90;99.90
50570;DHT22;36525;49.398;7.614;2022-08-18T14:36:17;28.60;99.90
50570;DHT22;36525;49.398;7.614;2022-08-18T14:38:56;28.30;99.90
50570;DHT22;36525;49.398;7.614;2022-08-18T14:41:24;28.40;99.90
50570;DHT22;36525;49.398;7.614;2022-08-18T14:43:53;28.30;99.90
50570;DHT22;36525;49.398;7.614;2022-08-18T14:46:38;28.90;99.90
50570;DHT22;36525;49.398;7.614;2022-08-18T14:49:06;29.40;99.90
50570;DHT22;36525;49.398;7.614;2022-08-18T14:51:33;29.80;99.90
50570;DHT22;36525;49.398;7.614;2022-08-18T14:54:04;29.90;99.90
50570;DHT22;36525;49.398;7.614;2022-08-18T14:59:05;31.10;99.90
50570;DHT22;36525;49.398;7.614;2022-08-18T15:04:09;31.40;99.90
50570;DHT22;36525;49.398;7.614;2022-08-18T15:06:44;31.20;99.90
50570;DHT22;36525;49.398;7.614;2022-08-18T15:09:25;31.00;99.90
50570;DHT22;36525;49.398;7.614;2022-08-18T15:11:54;30.60;99.90
50570;DHT22;36525;49.398;7.614;2022-08-18T15:14:29;30.50;99.90
50570;DHT22;36525;49.398;7.614;2022-08-18T15:17:03;30.10;99.90
50570;DHT22;36525;49.398;7.614;2022-08-18T15:19:38;30.00;99.90
50570;DHT22;36525;49.398;7.614;2022-08-18T15:22:25;29.60;99.90
50570;DHT22;36525;49.398;7.614;2022-08-18T15:25:13;29.30;99.90
50570;DHT22;36525;49.398;7.614;2022-08-18T15:27:59;29.10;99.90
50570;DHT22;36525;49.398;7.614;2022-08-18T15:30:26;29.00;99.90
50570;DHT22;36525;49.398;7.614;2022-08-18T15:32:53;28.80;99.90
50570;DHT22;36525;49.398;7.614;2022-08-18T15:35:21;28.90;99.90
50570;DHT22;36525;49.398;7.614;2022-08-18T15:37:48;28.50;99.90
50570;DHT22;36525;49.398;7.614;2022-08-18T15:40:23;28.50;99.90
50570;DHT22;36525;49.398;7.614;2022-08-18T15:43:05;28.50;99.90
50570;DHT22;36525;49.398;7.614;2022-08-18T15:45:41;28.70;99.90
50570;DHT22;36525;49.398;7.614;2022-08-18T15:48:25;28.80;99.90
50570;DHT22;36525;49.398;7.614;2022-08-18T15:50:55;29.10;99.90
50570;DHT22;36525;49.398;7.614;2022-08-18T15:53:24;29.40;99.90
50570;DHT22;36525;49.398;7.614;2022-08-18T15:55:56;29.50;99.90
50570;DHT22;36525;49.398;7.614;2022-08-18T15:58:25;29.50;99.90
50570;DHT22;36525;49.398;7.614;2022-08-18T16:00:55;29.30;99.90
50570;DHT22;36525;49.398;7.614;2022-08-18T16:03:24;29.40;99.90
50570;DHT22;36525;49.398;7.614;2022-08-18T16:05:53;29.60;99.90
50570;DHT22;36525;49.398;7.614;2022-08-18T16:08:22;29.50;99.90
50570;DHT22;36525;49.398;7.614;2022-08-18T16:10:51;29.60;99.90
50570;DHT22;36525;49.398;7.614;2022-08-18T16:13:20;29.60;99.90
50570;DHT22;36525;49.398;7.614;2022-08-18T16:15:48;29.50;99.90
50570;DHT22;36525;49.398;7.614;2022-08-18T16:18:17;29.00;99.90
50570;DHT22;36525;49.398;7.614;2022-08-18T16:20:46;28.90;99.90
50570;DHT22;36525;49.398;7.614;2022-08-18T16:23:16;29.10;99.90
50570;DHT22;36525;49.398;7.614;2022-08-18T16:25:43;29.00;99.90
50570;DHT22;36525;49.398;7.614;2022-08-18T16:28:11;29.00;99.90
50570;DHT22;36525;49.398;7.614;2022-08-18T16:30:39;28.90;99.90
50570;DHT22;36525;49.398;7.614;2022-08-18T16:33:06;28.90;99.90
50570;DHT22;36525;49.398;7.614;2022-08-18T16:35:35;28.80;99.90
50570;DHT22;36525;49.398;7.614;2022-08-18T16:38:07;28.60;99.90
50570;DHT22;36525;49.398;7.614;2022-08-18T16:40:35;28.60;99.90
50570;DHT22;36525;49.398;7.614;2022-08-18T16:43:03;28.40;99.90
50570;DHT22;36525;49.398;7.614;2022-08-18T16:45:35;28.40;99.90
50570;DHT22;36525;49.398;7.614;2022-08-18T16:48:02;28.20;99.90
50570;DHT22;36525;49.398;7.614;2022-08-18T16:50:31;28.20;99.90
50570;DHT22;36525;49.398;7.614;2022-08-18T16:52:59;28.20;99.90
50570;DHT22;36525;49.398;7.614;2022-08-18T16:55:26;28.10;99.90
50570;DHT22;36525;49.398;7.614;2022-08-18T16:57:53;27.80;99.90
50570;DHT22;36525;49.398;7.614;2022-08-18T17:00:41;27.70;99.90
50570;DHT22;36525;49.398;7.614;2022-08-18T17:03:27;27.50;99.90
50570;DHT22;36525;49.398;7.614;2022-08-18T17:06:15;27.40;99.90
50570;DHT22;36525;49.398;7.614;2022-08-18T17:08:45;27.50;99.90
50570;DHT22;36525;49.398;7.614;2022-08-18T17:11:16;27.40;99.90
50570;DHT22;36525;49.398;7.614;2022-08-18T17:13:46;27.10;99.90
50570;DHT22;36525;49.398;7.614;2022-08-18T17:16:15;26.70;99.90
50570;DHT22;36525;49.398;7.614;2022-08-18T17:18:44;26.30;99.90
50570;DHT22;36525;49.398;7.614;2022-08-18T17:21:15;26.00;99.90
50570;DHT22;36525;49.398;7.614;2022-08-18T17:23:44;25.60;99.90
50570;DHT22;36525;49.398;7.614;2022-08-18T17:26:22;25.30;99.90
50570;DHT22;36525;49.398;7.614;2022-08-18T17:29:05;25.20;99.90
50570;DHT22;36525;49.398;7.614;2022-08-18T17:31:57;25.00;99.90
50570;DHT22;36525;49.398;7.614;2022-08-18T17:34:34;24.80;99.90
50570;DHT22;36525;49.398;7.614;2022-08-18T17:37:09;24.60;99.90
50570;DHT22;36525;49.398;7.614;2022-08-18T17:39:54;24.50;99.90
50570;DHT22;36525;49.398;7.614;2022-08-18T17:42:28;24.50;99.90
50570;DHT22;36525;49.398;7.614;2022-08-18T17:45:06;24.60;99.90
50570;DHT22;36525;49.398;7.614;2022-08-18T17:47:56;24.70;99.90
50570;DHT22;36525;49.398;7.614;2022-08-18T17:50:40;24.80;99.90
50570;DHT22;36525;49.398;7.614;2022-08-18T17:53:31;24.80;99.90
50570;DHT22;36525;49.398;7.614;2022-08-18T17:58:52;24.60;99.90
50570;DHT22;36525;49.398;7.614;2022-08-18T18:02:22;24.40;99.90
50570;DHT22;36525;49.398;7.614;2022-08-18T18:05:07;24.20;99.90
50570;DHT22;36525;49.398;7.614;2022-08-18T18:10:10;24.00;99.90
50570;DHT22;36525;49.398;7.614;2022-08-18T18:12:40;23.90;99.90
50570;DHT22;36525;49.398;7.614;2022-08-18T18:15:11;24.00;99.90
50570;DHT22;36525;49.398;7.614;2022-08-18T18:17:41;23.90;99.90
50570;DHT22;36525;49.398;7.614;2022-08-18T18:20:37;23.70;99.90
50570;DHT22;36525;49.398;7.614;2022-08-18T18:23:18;23.50;99.90
50570;DHT22;36525;49.398;7.614;2022-08-18T18:25:48;23.40;99.90
50570;DHT22;36525;49.398;7.614;2022-08-18T18:31:22;23.40;99.90
50570;DHT22;36525;49.398;7.614;2022-08-18T18:34:03;23.30;99.90
50570;DHT22;36525;49.398;7.614;2022-08-18T18:36:49;23.20;99.90
50570;DHT22;36525;49.398;7.614;2022-08-18T18:39:27;23.10;99.90
50570;DHT22;36525;49.398;7.614;2022-08-18T18:42:22;22.90;99.90
50570;DHT22;36525;49.398;7.614;2022-08-18T18:44:53;22.90;99.90
50570;DHT22;36525;49.398;7.614;2022-08-18T18:50:05;22.80;99.90
50570;DHT22;36525;49.398;7.614;2022-08-18T18:53:08;22.80;99.90
50570;DHT22;36525;49.398;7.614;2022-08-18T18:55:49;22.80;99.90
50570;DHT22;36525;49.398;7.614;2022-08-18T18:58:36;22.70;99.90
50570;DHT22;36525;49.398;7.614;2022-08-18T19:01:15;22.70;99.90
50570;DHT22;36525;49.398;7.614;2022-08-18T19:03:53;22.60;99.90
50570;DHT22;36525;49.398;7.614;2022-08-18T19:06:36;22.50;99.90
50570;DHT22;36525;49.398;7.614;2022-08-18T19:12:23;22.40;99.90
50570;DHT22;36525;49.398;7.614;2022-08-18T19:14:57;22.30;99.90
50570;DHT22;36525;49.398;7.614;2022-08-18T19:17:41;22.30;99.90
50570;DHT22;36525;49.398;7.614;2022-08-18T19:20:16;22.30;99.90